Flight Track Log - Related Links

Times and Time Zones

All times are in EDT time to prevent confusion due to time zone crossing. See the DAL221 flight status page for this flight to view local times or setup timezone preferences in your user account.


Time Position Orientation Groundspeed Altitude Reporting Facility
EDT Latitude Longitude Course Direction KTS MPH feet Rate Location/Type
Thu 11:33:00 PM 33.6420 -84.4270 North 23 26  Level FlightAware ADS-B
Thu 11:33:48 PM 33.6440 -84.4270 360° North 27 31 243 Level FlightAware ADS-B
Thu 11:34:16 PM 33.6450 -84.4280 320° Northwest 34 39 269 Level FlightAware ADS-B
Thu 11:34:26 PM 33.6450 -84.4290 270° West 29 33 287 Level FlightAware ADS-B
Thu 11:35:32 PM 33.6450 -84.4340 270° West 17 20 294 Level FlightAware ADS-B
Thu 11:36:01 PM 33.6450 -84.4360 270° West 24 28 351 Level FlightAware ADS-B
Thu 11:36:24 PM 33.6450 -84.4370 270° West 21 24 383 Level FlightAware ADS-B
Thu 11:36:57 PM 33.6460 -84.4380 320° Northwest 13 15 414 Level FlightAware ADS-B
Thu 11:39:00 PM 33.4859 -84.2667 180° South  Level FlightAware Approximate
Thu 11:39:19 PM 33.6490 -84.4380 180° South 25 29  Level FlightAware ADS-B
Thu 11:40:18 PM 33.6470 -84.4360 140° Southeast 50 58 1,043 Level FlightAware ADS-B
Thu 11:40:46 PM 33.6470 -84.4170 90° East 2,143 Level FlightAware ADS-B
Thu 11:41:14 PM 33.6460 -84.3890 92° East 183 211 2,000 3,409 Climbing FlightAware ADS-B
Thu 11:41:30 PM 33.6430 -84.3730 103° East 192 221 2,500 1,227 Climbing FlightAware ADS-B
Thu 11:41:58 PM 33.6330 -84.3420 111° Southeast 228 262 2,900 964 Climbing FlightAware ADS-B
Thu 11:42:26 PM 33.6160 -84.3100 123° Southeast 258 297 3,400 1,200 Climbing FlightAware ADS-B
Thu 11:42:38 PM 33.6040 -84.3020 151° Southeast 270 311 3,700 1,846 Climbing FlightAware ADS-B
Thu 11:42:52 PM 33.5850 -84.2980 170° South 277 319 4,200 2,286 Climbing FlightAware ADS-B
Thu 11:43:20 PM 33.5480 -84.2960 177° South 283 326 5,300 2,464 Climbing FlightAware ADS-B
Thu 11:43:48 PM 33.5110 -84.2950 179° South 287 330 6,500 2,379 Climbing FlightAware ADS-B
Thu 11:44:18 PM 33.4720 -84.2920 176° South 289 333 7,600 2,172 Climbing FlightAware ADS-B
Thu 11:44:46 PM 33.4380 -84.2730 155° Southeast 288 331 8,600 2,105 Climbing FlightAware ADS-B
Thu 11:45:15 PM 33.4060 -84.2470 146° Southeast 295 339 9,600 1,800 Climbing FlightAware ADS-B
Thu 11:45:56 PM 33.3600 -84.2070 144° Southeast 313 360 10,700 1,247 Climbing FlightAware ADS-B
Thu 11:46:32 PM 33.3140 -84.1680 145° Southeast 347 399 11,200 868 Climbing FlightAware ADS-B
Thu 11:47:12 PM 33.2600 -84.1220 145° Southeast 375 432 11,800 1,071 Climbing FlightAware ADS-B
Thu 11:47:56 PM 33.1950 -84.0670 145° Southeast 396 456 12,700 1,500 Climbing FlightAware ADS-B
Thu 11:48:36 PM 33.1350 -84.0170 145° Southeast 402 463 13,900 2,071 Climbing FlightAware ADS-B
Thu 11:49:20 PM 33.0670 -83.9600 145° Southeast 392 451 15,600 2,071 Climbing FlightAware ADS-B
Thu 11:50:00 PM 33.0070 -83.9100 145° Southeast 395 455 16,800 1,643 Climbing FlightAware ADS-B
Thu 11:50:44 PM 32.9420 -83.8560 145° Southeast 401 461 17,900 1,421 Climbing FlightAware ADS-B
Thu 11:51:16 PM 32.8940 -83.8160 145° Southeast 406 467 18,600 1,047 Climbing FlightAware ADS-B
Thu 11:52:10 PM 32.8160 -83.7500 145° Southeast 408 470 19,400 471 Climbing FlightAware ADS-B
Thu 11:52:58 PM 32.7540 -83.6960 144° Southeast 408 470 19,400 1,875 Level FlightAware ADS-B
Thu 11:53:30 PM 32.6830 -83.6380 145° Southeast 418 481 21,900 2,514 Climbing FlightAware ADS-B
Thu 11:54:12 PM 32.6200 -83.5760 140° Southeast 428 493 22,500 980 Climbing FlightAware ADS-B
Thu 11:55:08 PM 32.5350 -83.4900 140° Southeast 436 502 23,500 907 Climbing FlightAware ADS-B
Thu 11:55:38 PM 32.4870 -83.4430 140° Southeast 446 513 23,800 220 Climbing FlightAware ADS-B
Thu 11:56:57 PM 32.3750 -83.3280 139° Southeast 453 521 23,900 52 Climbing FlightAware ADS-B
Thu 11:57:33 PM 32.3270 -83.2790 139° Southeast 453 521 23,900  Level FlightAware ADS-B
Thu 11:58:19 PM 32.2650 -83.2150 139° Southeast 453 521 23,900  Level FlightAware ADS-B
Thu 11:58:55 PM 32.2160 -83.1650 139° Southeast 453 521 23,900  Level FlightAware ADS-B
Thu 11:59:43 PM 32.1520 -83.0990 139° Southeast 453 521 23,900 2,176 Level FlightAware ADS-B
Fri 12:00:26 AM 32.0058 -82.9708 139° Southeast 480 552 27,200 2,272 Climbing Jacksonville Center
Fri 12:01:26 AM 31.9139 -82.9072 150° Southeast 485 558 27,800 750 Climbing Jacksonville Center
Fri 12:02:26 AM 31.7867 -82.8169 149° Southeast 485 558 28,700 900 Climbing Jacksonville Center
Fri 12:03:26 AM 31.6694 -82.7314 148° Southeast 485 558 29,600 950 Climbing Jacksonville Center
Fri 12:04:26 AM 31.5586 -82.6486 148° Southeast 485 558 30,600 900 Climbing Jacksonville Center
Fri 12:05:26 AM 31.4458 -82.5686 149° Southeast 479 551 31,400 750 Climbing Jacksonville Center
Fri 12:06:26 AM 31.3267 -82.4936 152° Southeast 479 551 32,100 650 Climbing Jacksonville Center
Fri 12:07:26 AM 31.2053 -82.4067 149° Southeast 479 551 32,700 700 Climbing Jacksonville Center
Fri 12:08:26 AM 31.1006 -82.3344 149° Southeast 479 551 33,500 650 Climbing Jacksonville Center
Fri 12:09:26 AM 30.9789 -82.2481 149° Southeast 473 544 34,000 250 Climbing Jacksonville Center
Fri 12:10:26 AM 30.8658 -82.1714 150° Southeast 473 544 34,000  Level Jacksonville Center
Fri 12:15:48 AM 30.2360 -81.7890 150° Southeast 472 543 34,000  Level FlightAware ADS-B
Fri 12:16:30 AM 30.1540 -81.7420 154° Southeast 472 543 34,000  Level FlightAware ADS-B
Fri 12:17:13 AM 30.0710 -81.6940 153° Southeast 472 543 34,000  Level FlightAware ADS-B
Fri 12:18:13 AM 29.9560 -81.6280 154° Southeast 470 541 34,000  Level FlightAware ADS-B
Fri 12:19:05 AM 29.8530 -81.5690 154° Southeast 470 541 34,000  Level FlightAware ADS-B
Fri 12:20:00 AM 29.7430 -81.5060 154° Southeast 469 540 34,000  Level FlightAware ADS-B
Fri 12:20:36 AM 29.8150 -81.5470 334° Northwest 470 541 34,000  Level FlightAware ADS-B
Fri 12:21:40 AM 29.5540 -81.3980 154° Southeast 470 541 34,000  Level FlightAware ADS-B
Fri 12:22:23 AM 29.4650 -81.3480 154° Southeast 34,000  Level FlightAware ADS-B
Fri 12:23:15 AM 29.3660 -81.2910 153° Southeast 465 535 34,000  Level FlightAware ADS-B
Fri 12:23:50 AM 29.2930 -81.2500 154° Southeast 465 535 34,000  Level FlightAware ADS-B
Fri 12:24:35 AM 29.2040 -81.2000 154° Southeast 466 536 34,000  Level FlightAware ADS-B
Fri 12:25:16 AM 29.1230 -81.1540 154° Southeast 465 535 34,000  Level FlightAware ADS-B
Fri 12:25:46 AM 29.0670 -81.1230 154° Southeast 467 537 34,000  Level FlightAware ADS-B
Fri 12:26:30 AM 28.9790 -81.0750 154° Southeast 468 539 34,000  Level FlightAware ADS-B
Fri 12:26:55 AM 28.9280 -81.0470 154° Southeast 468 539 34,000  Level FlightAware ADS-B
Fri 12:27:36 AM 28.8460 -81.0020 154° Southeast 467 537 34,000  Level FlightAware ADS-B
Fri 12:28:20 AM 28.7610 -80.9550 154° Southeast 466 536 34,000  Level FlightAware ADS-B
Fri 12:29:00 AM 28.6810 -80.9110 154° Southeast 467 537 34,000  Level FlightAware ADS-B
Fri 12:29:46 AM 28.5910 -80.8620 154° Southeast 467 537 34,000  Level FlightAware ADS-B
Fri 12:30:25 AM 28.5130 -80.8190 154° Southeast 466 536 34,000  Level FlightAware ADS-B
Fri 12:31:05 AM 28.4330 -80.7750 154° Southeast 466 536 34,000  Level FlightAware ADS-B
Fri 12:31:52 AM 28.3540 -80.7300 153° Southeast 466 536 34,000  Level FlightAware ADS-B
Fri 12:32:34 AM 28.2860 -80.6900 153° Southeast 466 536 34,000  Level FlightAware ADS-B
Fri 12:33:16 AM 28.1760 -80.6350 156° South 465 535 34,000  Level FlightAware ADS-B
Fri 12:33:56 AM 28.0980 -80.5930 155° Southeast 465 535 34,000  Level FlightAware ADS-B
Fri 12:34:40 AM 28.0080 -80.5440 154° Southeast 464 534 34,000 424 Level FlightAware ADS-B
Fri 12:35:21 AM 27.9280 -80.5010 155° Southeast 467 537 34,600 732 Climbing FlightAware ADS-B
Fri 12:36:02 AM 27.8490 -80.4580 154° Southeast 467 537 35,000 282 Climbing FlightAware ADS-B
Fri 12:36:46 AM 27.7600 -80.4100 154° Southeast 467 537 35,000  Level FlightAware ADS-B
Fri 12:37:26 AM 27.6860 -80.3710 155° Southeast 467 537 35,000  Level FlightAware ADS-B
Fri 12:38:06 AM 27.6060 -80.3270 154° Southeast 461 531 35,000  Level FlightAware ADS-B
Fri 12:38:41 AM 27.5380 -80.2910 155° Southeast 462 532 35,000  Level FlightAware ADS-B
Fri 12:39:26 AM 27.4510 -80.2450 155° Southeast 462 532 35,000  Level FlightAware ADS-B
Fri 12:40:05 AM 27.3730 -80.2030 154° Southeast 462 532 35,000  Level FlightAware ADS-B
Fri 12:40:50 AM 27.2820 -80.1540 154° Southeast 463 533 35,000  Level FlightAware ADS-B
Fri 12:41:35 AM 27.1950 -80.1080 155° Southeast 462 532 35,000  Level FlightAware ADS-B
Fri 12:42:16 AM 27.1140 -80.0650 155° Southeast 462 532 35,000  Level FlightAware ADS-B
Fri 12:42:51 AM 27.0470 -80.0290 154° Southeast 461 531 35,000  Level FlightAware ADS-B
Fri 12:43:40 AM 26.9490 -79.9770 155° Southeast 467 537 35,000  Level FlightAware ADS-B
Fri 12:44:17 AM 26.8780 -79.9400 155° Southeast 467 537 35,000  Level FlightAware ADS-B
Fri 12:45:02 AM 26.7880 -79.8920 155° Southeast 466 536 35,000  Level FlightAware ADS-B
Fri 12:45:42 AM 26.7120 -79.8520 155° Southeast 465 535 35,000  Level FlightAware ADS-B
Fri 12:46:23 AM 26.6350 -79.8120 155° Southeast 463 533 35,000  Level FlightAware ADS-B
Fri 12:47:02 AM 26.5560 -79.7700 155° Southeast 461 531 35,000  Level FlightAware ADS-B
Fri 12:47:52 AM 26.4590 -79.7190 155° Southeast 459 528 35,000  Level FlightAware ADS-B
Fri 12:48:32 AM 26.3810 -79.6780 155° Southeast 450 518 35,000  Level FlightAware ADS-B
Fri 12:49:12 AM 26.3070 -79.6400 155° Southeast 448 516 35,000  Level FlightAware ADS-B
Fri 12:49:52 AM 26.2290 -79.5990 155° Southeast 445 512 35,000  Level FlightAware ADS-B
Fri 12:50:42 AM 26.1350 -79.5500 155° Southeast 443 510 35,000  Level FlightAware ADS-B
Fri 12:51:22 AM 26.0600 -79.5110 155° Southeast 448 516 35,000  Level FlightAware ADS-B
Fri 12:52:02 AM 25.9840 -79.4710 155° Southeast 445 512 35,000  Level FlightAware ADS-B
Fri 12:52:43 AM 25.9090 -79.4320 155° Southeast 442 509 35,000  Level FlightAware ADS-B
Fri 12:53:28 AM 25.8240 -79.3880 155° Southeast 440 506 35,000  Level FlightAware ADS-B
Fri 12:54:03 AM 25.7600 -79.3550 155° Southeast 432 497 35,000  Level FlightAware ADS-B
Fri 12:54:44 AM 25.6850 -79.3160 155° Southeast 431 496 35,000  Level FlightAware ADS-B
Fri 12:55:23 AM 25.6140 -79.2800 155° Southeast 429 494 35,000  Level FlightAware ADS-B
Fri 12:56:06 AM 25.5330 -79.2380 155° Southeast 437 503 35,000  Level FlightAware ADS-B
Fri 12:56:46 AM 25.4590 -79.2000 155° Southeast 439 505 35,000  Level FlightAware ADS-B
Fri 12:57:28 AM 25.3820 -79.1600 155° Southeast 441 507 35,000  Level FlightAware ADS-B
Fri 12:58:08 AM 25.3070 -79.1220 155° Southeast 442 509 35,000  Level FlightAware ADS-B
Fri 12:58:48 AM 25.2340 -79.0840 155° Southeast 443 510 35,000  Level FlightAware ADS-B
Fri 12:59:33 AM 25.1500 -79.0410 155° Southeast 443 510 35,000  Level FlightAware ADS-B
Fri 01:00:13 AM 25.0750 -79.0030 155° Southeast 443 510 35,000  Level FlightAware ADS-B
Fri 01:00:53 AM 25.0020 -78.9650 155° Southeast 445 512 35,000  Level FlightAware ADS-B
Fri 01:01:28 AM 24.9350 -78.9310 155° Southeast 446 513 35,000  Level FlightAware ADS-B
Fri 01:02:13 AM 24.8510 -78.8890 156° South 441 507 35,000  Level FlightAware ADS-B
Fri 01:02:53 AM 24.7800 -78.8520 155° Southeast 443 510 35,000  Level FlightAware ADS-B
Fri 01:03:33 AM 24.6990 -78.8110 155° Southeast 445 512 35,000  Level FlightAware ADS-B
Fri 01:04:19 AM 24.6120 -78.7670 155° Southeast 445 512 35,000  Level FlightAware ADS-B
Fri 01:05:00 AM 24.5370 -78.7290 155° Southeast 446 513 35,000  Level FlightAware ADS-B
Fri 01:05:45 AM 24.4490 -78.6850 156° South 447 514 35,000  Level FlightAware ADS-B
Fri 01:06:13 AM 24.3930 -78.6560 155° Southeast 448 516 35,000  Level FlightAware ADS-B
Fri 01:07:01 AM 24.3050 -78.6120 156° South 457 526 35,000  Level FlightAware ADS-B
Fri 01:07:43 AM 24.2390 -78.5780 155° Southeast 457 526 35,000  Level FlightAware ADS-B
Fri 01:08:19 AM 24.1800 -78.5480 155° Southeast 457 526 35,000  Level FlightAware ADS-B
Fri 01:08:55 AM 24.1220 -78.5180 155° Southeast 457 526 35,000  Level FlightAware ADS-B
Fri 01:09:43 AM 24.0440 -78.4780 155° Southeast 457 526 35,000  Level FlightAware ADS-B
Fri 01:10:19 AM 23.9850 -78.4480 155° Southeast 457 526 35,000  Level FlightAware ADS-B
Fri 01:11:25 AM 23.8770 -78.3940 155° Southeast 457 526 35,000  Level FlightAware ADS-B
Fri 01:12:13 AM 23.7990 -78.3540 155° Southeast 457 526 35,000  Level FlightAware ADS-B
Fri 01:13:03 AM 23.7180 -78.3120 155° Southeast 457 526 35,000  Level FlightAware ADS-B
Fri 01:13:39 AM 23.6590 -78.2820 155° Southeast 457 526 35,000  Level FlightAware ADS-B
Fri 01:14:16 AM 23.5990 -78.2520 155° Southeast 457 526 35,000  Level FlightAware ADS-B
Fri 01:14:52 AM 23.5400 -78.2220 155° Southeast 457 526 35,000  Level FlightAware ADS-B
Fri 01:15:40 AM 23.4620 -78.1820 155° Southeast 457 526 35,000  Level FlightAware ADS-B
Fri 01:16:17 AM 23.4020 -78.1520 155° Southeast 457 526 35,000  Level FlightAware ADS-B
Fri 01:17:05 AM 23.3240 -78.1120 155° Southeast 457 526 35,000 Level FlightAware ADS-B
Fri 01:19:00 AM 23.1371 -77.9426 140° Southeast  Level Estimated
Fri 01:20:00 AM 23.0395 -77.8543 140° Southeast  Level Estimated
Fri 01:21:00 AM 22.9418 -77.7662 140° Southeast  Level Estimated
Fri 01:22:00 AM 22.8441 -77.6783 140° Southeast  Level Estimated
Fri 01:23:00 AM 22.7464 -77.5904 140° Southeast  Level Estimated
Fri 01:24:00 AM 22.6486 -77.5027 140° Southeast  Level Estimated
Fri 01:25:00 AM 22.5507 -77.4151 140° Southeast  Level Estimated
Fri 01:26:00 AM 22.4529 -77.3277 140° Southeast  Level Estimated
Fri 01:27:00 AM 22.3549 -77.2403 140° Southeast  Level Estimated
Fri 01:28:00 AM 22.2569 -77.1531 141° Southeast  Level Estimated
Fri 01:29:00 AM 22.1589 -77.0660 141° Southeast  Level Estimated
Fri 01:30:00 AM 22.0608 -76.9790 141° Southeast  Level Estimated
Fri 01:31:00 AM 21.9627 -76.8922 141° Southeast  Level Estimated
Fri 01:32:00 AM 21.8645 -76.8054 141° Southeast  Level Estimated
Fri 01:33:00 AM 21.7663 -76.7188 141° Southeast  Level Estimated
Fri 01:34:00 AM 21.6681 -76.6323 141° Southeast  Level Estimated
Fri 01:35:00 AM 21.5698 -76.5459 141° Southeast  Level Estimated
Fri 01:36:00 AM 21.4714 -76.4596 141° Southeast  Level Estimated
Fri 01:37:00 AM 21.3730 -76.3735 141° Southeast  Level Estimated
Fri 01:38:00 AM 21.2746 -76.2875 141° Southeast  Level Estimated
Fri 01:39:00 AM 21.1761 -76.2016 141° Southeast  Level Estimated
Fri 01:40:00 AM 21.0776 -76.1158 141° Southeast  Level Estimated
Fri 01:41:00 AM 20.9790 -76.0301 141° Southeast  Level Estimated
Fri 01:42:00 AM 20.8804 -75.9445 141° Southeast  Level Estimated
Fri 01:43:00 AM 20.7818 -75.8590 141° Southeast  Level Estimated
Fri 01:44:00 AM 20.6831 -75.7737 141° Southeast  Level Estimated
Fri 01:45:00 AM 20.5844 -75.6884 141° Southeast  Level Estimated
Fri 01:46:00 AM 20.4856 -75.6033 141° Southeast  Level Estimated
Fri 01:47:00 AM 20.3868 -75.5183 141° Southeast  Level Estimated
Fri 01:48:00 AM 20.2879 -75.4334 141° Southeast  Level Estimated
Fri 01:49:00 AM 20.1890 -75.3486 141° Southeast  Level Estimated
Fri 01:50:00 AM 20.0901 -75.2639 141° Southeast  Level Estimated
Fri 01:51:00 AM 19.9911 -75.1793 141° Southeast  Level Estimated
Fri 01:52:00 AM 19.8921 -75.0948 141° Southeast  Level Estimated
Fri 01:53:00 AM 19.7930 -75.0104 141° Southeast  Level Estimated
Fri 01:54:00 AM 19.6939 -74.9261 141° Southeast  Level Estimated
Fri 01:55:00 AM 19.5948 -74.8420 141° Southeast  Level Estimated
Fri 01:56:00 AM 19.4956 -74.7579 141° Southeast  Level Estimated
Fri 01:57:00 AM 19.3964 -74.6740 141° Southeast  Level Estimated
Fri 01:58:00 AM 19.2971 -74.5901 141° Southeast  Level Estimated
Fri 01:59:00 AM 19.1978 -74.5063 141° Southeast  Level Estimated
Fri 02:00:00 AM 19.0985 -74.4227 141° Southeast  Level Estimated
Fri 02:01:00 AM 18.9991 -74.3391 142° Southeast  Level Estimated
Fri 02:02:00 AM 18.8997 -74.2557 142° Southeast  Level Estimated
Fri 02:03:00 AM 18.8003 -74.1723 142° Southeast  Level Estimated
Fri 02:04:00 AM 18.7008 -74.0890 142° Southeast  Level Estimated
Fri 02:05:00 AM 18.6013 -74.0059 142° Southeast  Level Estimated
Fri 02:06:00 AM 18.5017 -73.9228 142° Southeast  Level Estimated
Fri 02:07:00 AM 18.4021 -73.8399 142° Southeast  Level Estimated
Fri 02:08:00 AM 18.3025 -73.7570 142° Southeast  Level Estimated
Fri 02:09:00 AM 18.2028 -73.6742 142° Southeast  Level Estimated
Fri 02:10:00 AM 18.1031 -73.5915 142° Southeast  Level Estimated
Fri 02:11:00 AM 18.0034 -73.5089 142° Southeast  Level Estimated
Fri 02:12:00 AM 17.9036 -73.4264 142° Southeast  Level Estimated
Fri 02:13:00 AM 17.8038 -73.3440 142° Southeast  Level Estimated
Fri 02:14:00 AM 17.7040 -73.2617 142° Southeast  Level Estimated
Fri 02:15:00 AM 17.6041 -73.1795 142° Southeast  Level Estimated
Fri 02:16:00 AM 17.5042 -73.0974 142° Southeast  Level Estimated
Fri 02:17:00 AM 17.4043 -73.0153 142° Southeast  Level Estimated
Fri 02:18:00 AM 17.3043 -72.9334 142° Southeast  Level Estimated
Fri 02:19:00 AM 17.2043 -72.8515 142° Southeast  Level Estimated
Fri 02:20:00 AM 17.1043 -72.7698 142° Southeast  Level Estimated
Fri 02:21:00 AM 17.0042 -72.6881 142° Southeast  Level Estimated
Fri 02:22:00 AM 16.9041 -72.6065 142° Southeast  Level Estimated
Fri 02:23:00 AM 16.8040 -72.5250 142° Southeast  Level Estimated
Fri 02:24:00 AM 16.7038 -72.4436 142° Southeast  Level Estimated
Fri 02:25:00 AM 16.6036 -72.3622 142° Southeast  Level Estimated
Fri 02:26:00 AM 16.5034 -72.2810 142° Southeast  Level Estimated
Fri 02:27:00 AM 16.4031 -72.1998 142° Southeast  Level Estimated
Fri 02:28:00 AM 16.3028 -72.1187 142° Southeast  Level Estimated
Fri 02:29:00 AM 16.2025 -72.0377 142° Southeast  Level Estimated
Fri 02:30:00 AM 16.1021 -71.9568 142° Southeast  Level Estimated
Fri 02:31:00 AM 16.0018 -71.8760 142° Southeast  Level Estimated
Fri 02:32:00 AM 15.9014 -71.7952 142° Southeast  Level Estimated
Fri 02:33:00 AM 15.8009 -71.7145 142° Southeast  Level Estimated
Fri 02:34:00 AM 15.7004 -71.6339 142° Southeast  Level Estimated
Fri 02:35:00 AM 15.5999 -71.5534 142° Southeast  Level Estimated
Fri 02:36:00 AM 15.4994 -71.4730 142° Southeast  Level Estimated
Fri 02:37:00 AM 15.3988 -71.3926 142° Southeast  Level Estimated
Fri 02:38:00 AM 15.2983 -71.3124 142° Southeast  Level Estimated
Fri 02:39:00 AM 15.1976 -71.2322 142° Southeast  Level Estimated
Fri 02:40:00 AM 15.0970 -71.1520 142° Southeast  Level Estimated
Fri 02:41:00 AM 14.9963 -71.0720 142° Southeast  Level Estimated
Fri 02:42:00 AM 14.8956 -70.9920 142° Southeast  Level Estimated
Fri 02:43:00 AM 14.7949 -70.9121 143° Southeast  Level Estimated
Fri 02:44:00 AM 14.6941 -70.8323 143° Southeast  Level Estimated
Fri 02:45:00 AM 14.5933 -70.7525 143° Southeast  Level Estimated
Fri 02:46:00 AM 14.4925 -70.6728 143° Southeast  Level Estimated
Fri 02:47:00 AM 14.3917 -70.5932 143° Southeast  Level Estimated
Fri 02:48:00 AM 14.2908 -70.5137 143° Southeast  Level Estimated
Fri 02:49:00 AM 14.1899 -70.4342 143° Southeast  Level Estimated
Fri 02:50:00 AM 14.0890 -70.3548 143° Southeast  Level Estimated
Fri 02:51:00 AM 13.9880 -70.2755 143° Southeast  Level Estimated
Fri 02:52:00 AM 13.8871 -70.1963 143° Southeast  Level Estimated
Fri 02:53:00 AM 13.7861 -70.1171 143° Southeast  Level Estimated
Fri 02:54:00 AM 13.6851 -70.0380 143° Southeast  Level Estimated
Fri 02:55:00 AM 13.5840 -69.9589 143° Southeast  Level Estimated
Fri 02:56:00 AM 13.4829 -69.8799 143° Southeast  Level Estimated
Fri 02:57:00 AM 13.3818 -69.8010 143° Southeast  Level Estimated
Fri 02:58:00 AM 13.2807 -69.7222 143° Southeast  Level Estimated
Fri 02:59:00 AM 13.1796 -69.6434 143° Southeast  Level Estimated
Fri 03:00:00 AM 13.0784 -69.5647 143° Southeast  Level Estimated
Fri 03:01:00 AM 12.9772 -69.4860 143° Southeast  Level Estimated
Fri 03:02:00 AM 12.8760 -69.4074 143° Southeast  Level Estimated
Fri 03:03:00 AM 12.7747 -69.3289 143° Southeast  Level Estimated
Fri 03:04:00 AM 12.6735 -69.2505 143° Southeast  Level Estimated
Fri 03:05:00 AM 12.5722 -69.1721 143° Southeast  Level Estimated
Fri 03:06:00 AM 12.4709 -69.0937 143° Southeast  Level Estimated
Fri 03:07:00 AM 12.3695 -69.0154 143° Southeast  Level Estimated
Fri 03:08:00 AM 12.2682 -68.9372 143° Southeast  Level Estimated
Fri 03:09:00 AM 12.1668 -68.8591 143° Southeast  Level Estimated
Fri 03:10:00 AM 12.0654 -68.7810 143° Southeast  Level Estimated
Fri 03:11:00 AM 11.9640 -68.7029 143° Southeast  Level Estimated
Fri 03:12:00 AM 11.8626 -68.6249 143° Southeast  Level Estimated
Fri 03:13:00 AM 11.7611 -68.5470 143° Southeast  Level Estimated
Fri 03:14:00 AM 11.6596 -68.4692 143° Southeast  Level Estimated
Fri 03:15:00 AM 11.5581 -68.3913 143° Southeast  Level Estimated
Fri 03:16:00 AM 11.4566 -68.3136 143° Southeast  Level Estimated
Fri 03:17:00 AM 11.3550 -68.2359 143° Southeast  Level Estimated
Fri 03:18:00 AM 11.2535 -68.1583 143° Southeast  Level Estimated
Fri 03:19:00 AM 11.1519 -68.0807 143° Southeast  Level Estimated
Fri 03:20:00 AM 11.0503 -68.0032 143° Southeast  Level Estimated
Fri 03:21:00 AM 10.9486 -67.9257 143° Southeast  Level Estimated
Fri 03:22:00 AM 10.8470 -67.8483 143° Southeast  Level Estimated
Fri 03:23:00 AM 10.7453 -67.7709 143° Southeast  Level Estimated
Fri 03:24:00 AM 10.6436 -67.6936 143° Southeast  Level Estimated
Fri 03:25:00 AM 10.5419 -67.6163 143° Southeast  Level Estimated
Fri 03:26:00 AM 10.4402 -67.5391 143° Southeast  Level Estimated
Fri 03:27:00 AM 10.3385 -67.4619 143° Southeast  Level Estimated
Fri 03:28:00 AM 10.2367 -67.3848 143° Southeast  Level Estimated
Fri 03:29:00 AM 10.1349 -67.3077 143° Southeast  Level Estimated
Fri 03:30:00 AM 10.0331 -67.2307 143° Southeast  Level Estimated
Fri 03:31:00 AM 9.9313 -67.1537 143° Southeast  Level Estimated
Fri 03:32:00 AM 9.8295 -67.0768 143° Southeast  Level Estimated
Fri 03:33:00 AM 9.7276 -67.0000 143° Southeast  Level Estimated
Fri 03:34:00 AM 9.6258 -66.9231 143° Southeast  Level Estimated
Fri 03:35:00 AM 9.5239 -66.8464 143° Southeast  Level Estimated
Fri 03:36:00 AM 9.4220 -66.7696 143° Southeast  Level Estimated
Fri 03:37:00 AM 9.3201 -66.6929 143° Southeast  Level Estimated
Fri 03:38:00 AM 9.2181 -66.6163 143° Southeast  Level Estimated
Fri 03:39:00 AM 9.1162 -66.5397 143° Southeast  Level Estimated
Fri 03:40:00 AM 9.0142 -66.4631 143° Southeast  Level Estimated
Fri 03:41:00 AM 8.9122 -66.3866 143° Southeast  Level Estimated
Fri 03:42:00 AM 8.8103 -66.3102 143° Southeast  Level Estimated
Fri 03:43:00 AM 8.7082 -66.2337 143° Southeast  Level Estimated
Fri 03:44:00 AM 8.6062 -66.1573 143° Southeast  Level Estimated
Fri 03:45:00 AM 8.5042 -66.0810 143° Southeast  Level Estimated
Fri 03:46:00 AM 8.4021 -66.0047 144° Southeast  Level Estimated
Fri 03:47:00 AM 8.3000 -65.9284 144° Southeast  Level Estimated
Fri 03:48:00 AM 8.1980 -65.8522 144° Southeast  Level Estimated
Fri 03:49:00 AM 8.0958 -65.7760 144° Southeast  Level Estimated
Fri 03:50:00 AM 7.9937 -65.6999 144° Southeast  Level Estimated
Fri 03:51:00 AM 7.8916 -65.6238 144° Southeast  Level Estimated
Fri 03:52:00 AM 7.7895 -65.5477 144° Southeast  Level Estimated
Fri 03:53:00 AM 7.6873 -65.4717 144° Southeast  Level Estimated
Fri 03:54:00 AM 7.5851 -65.3957 144° Southeast  Level Estimated
Fri 03:55:00 AM 7.4830 -65.3197 144° Southeast  Level Estimated
Fri 03:56:00 AM 7.3808 -65.2438 144° Southeast  Level Estimated
Fri 03:57:00 AM 7.2786 -65.1679 144° Southeast  Level Estimated
Fri 03:58:00 AM 7.1764 -65.0920 144° Southeast  Level Estimated
Fri 03:59:00 AM 7.0741 -65.0162 144° Southeast  Level Estimated
Fri 04:00:00 AM 6.9719 -64.9404 144° Southeast  Level Estimated
Fri 04:01:00 AM 6.8696 -64.8646 144° Southeast  Level Estimated
Fri 04:02:00 AM 6.7674 -64.7889 144° Southeast  Level Estimated
Fri 04:03:00 AM 6.6651 -64.7132 144° Southeast  Level Estimated
Fri 04:04:00 AM 6.5628 -64.6376 144° Southeast  Level Estimated
Fri 04:05:00 AM 6.4605 -64.5620 144° Southeast  Level Estimated
Fri 04:06:00 AM 6.3582 -64.4864 144° Southeast  Level Estimated
Fri 04:07:00 AM 6.2558 -64.4108 144° Southeast  Level Estimated
Fri 04:08:00 AM 6.1535 -64.3352 144° Southeast  Level Estimated
Fri 04:09:00 AM 6.0511 -64.2597 144° Southeast  Level Estimated
Fri 04:10:00 AM 5.9488 -64.1842 144° Southeast  Level Estimated
Fri 04:11:00 AM 5.8464 -64.1088 144° Southeast  Level Estimated
Fri 04:12:00 AM 5.7440 -64.0334 144° Southeast  Level Estimated
Fri 04:13:00 AM 5.6417 -63.9580 144° Southeast  Level Estimated
Fri 04:14:00 AM 5.5392 -63.8826 144° Southeast  Level Estimated
Fri 04:15:00 AM 5.4368 -63.8073 144° Southeast  Level Estimated
Fri 04:16:00 AM 5.3344 -63.7319 144° Southeast  Level Estimated
Fri 04:17:00 AM 5.2320 -63.6567 144° Southeast  Level Estimated
Fri 04:18:00 AM 5.1296 -63.5814 144° Southeast  Level Estimated
Fri 04:19:00 AM 5.0271 -63.5061 144° Southeast  Level Estimated
Fri 04:20:00 AM 4.9247 -63.4309 144° Southeast  Level Estimated
Fri 04:21:00 AM 4.8222 -63.3557 144° Southeast  Level Estimated
Fri 04:22:00 AM 4.7197 -63.2805 144° Southeast  Level Estimated
Fri 04:23:00 AM 4.6173 -63.2054 144° Southeast  Level Estimated
Fri 04:24:00 AM 4.5148 -63.1303 144° Southeast  Level Estimated
Fri 04:25:00 AM 4.4123 -63.0552 144° Southeast  Level Estimated
Fri 04:26:00 AM 4.3098 -62.9801 144° Southeast  Level Estimated
Fri 04:27:00 AM 4.2073 -62.9050 144° Southeast  Level Estimated
Fri 04:28:00 AM 4.1048 -62.8299 144° Southeast  Level Estimated
Fri 04:29:00 AM 4.0023 -62.7549 144° Southeast  Level Estimated
Fri 04:30:00 AM 3.8997 -62.6799 144° Southeast  Level Estimated
Fri 04:31:00 AM 3.7972 -62.6049 144° Southeast  Level Estimated
Fri 04:32:00 AM 3.6946 -62.5299 144° Southeast  Level Estimated
Fri 04:33:00 AM 3.5921 -62.4550 144° Southeast  Level Estimated
Fri 04:34:00 AM 3.4896 -62.3800 144° Southeast  Level Estimated
Fri 04:35:00 AM 3.3870 -62.3051 144° Southeast  Level Estimated
Fri 04:36:00 AM 3.2844 -62.2302 144° Southeast  Level Estimated
Fri 04:37:00 AM 3.1818 -62.1553 144° Southeast  Level Estimated
Fri 04:38:00 AM 3.0793 -62.0804 144° Southeast  Level Estimated
Fri 04:39:00 AM 2.9767 -62.0056 144° Southeast  Level Estimated
Fri 04:40:00 AM 2.8741 -61.9307 144° Southeast  Level Estimated
Fri 04:41:00 AM 2.7715 -61.8559 144° Southeast  Level Estimated
Fri 04:42:00 AM 2.6689 -61.7811 144° Southeast  Level Estimated
Fri 04:43:00 AM 2.5663 -61.7063 144° Southeast  Level Estimated
Fri 04:44:00 AM 2.4637 -61.6315 144° Southeast  Level Estimated
Fri 04:45:00 AM 2.3611 -61.5567 144° Southeast  Level Estimated
Fri 04:46:00 AM 2.2585 -61.4819 144° Southeast  Level Estimated
Fri 04:47:00 AM 2.1559 -61.4071 144° Southeast  Level Estimated
Fri 04:48:00 AM 2.0533 -61.3324 144° Southeast  Level Estimated
Fri 04:49:00 AM 1.9506 -61.2576 144° Southeast  Level Estimated
Fri 04:50:00 AM 1.8480 -61.1829 144° Southeast  Level Estimated
Fri 04:51:00 AM 1.7454 -61.1081 144° Southeast  Level Estimated
Fri 04:52:00 AM 1.6427 -61.0334 144° Southeast  Level Estimated
Fri 04:53:00 AM 1.5401 -60.9587 144° Southeast  Level Estimated
Fri 04:54:00 AM 1.4375 -60.8840 144° Southeast  Level Estimated
Fri 04:55:00 AM 1.3348 -60.8093 144° Southeast  Level Estimated
Fri 04:56:00 AM 1.2322 -60.7346 144° Southeast  Level Estimated
Fri 04:57:00 AM 1.1295 -60.6599 144° Southeast  Level Estimated
Fri 04:58:00 AM 1.0269 -60.5852 144° Southeast  Level Estimated
Fri 04:59:00 AM 0.9242 -60.5106 144° Southeast  Level Estimated
Fri 05:00:00 AM 0.8216 -60.4359 144° Southeast  Level Estimated
Fri 05:01:00 AM 0.7189 -60.3612 144° Southeast  Level Estimated
Fri 05:02:00 AM 0.6163 -60.2865 144° Southeast  Level Estimated
Fri 05:03:00 AM 0.5136 -60.2119 144° Southeast  Level Estimated
Fri 05:04:00 AM 0.4110 -60.1372 144° Southeast  Level Estimated
Fri 05:05:00 AM 0.3083 -60.0626 144° Southeast  Level Estimated
Fri 05:06:00 AM 0.2057 -59.9879 144° Southeast  Level Estimated
Fri 05:06:40 AM -1.3750 -61.4030 144° Southeast 452 520 37,000  Level FlightAware ADS-B
Fri 05:07:00 AM 0.1030 -59.9132 144° Southeast  Level Estimated
Fri 05:07:17 AM -1.4350 -61.3570 143° Southeast 455 524 37,000  Level FlightAware ADS-B
Fri 05:07:57 AM -1.5050 -61.3040 143° Southeast 457 526 37,000  Level FlightAware ADS-B
Fri 05:08:41 AM -1.5790 -61.2470 142° Southeast 459 528 37,000  Level FlightAware ADS-B
Fri 05:09:21 AM -1.6480 -61.1950 143° Southeast 460 529 37,000  Level FlightAware ADS-B
Fri 05:10:06 AM -1.7220 -61.1380 142° Southeast 462 532 37,000  Level FlightAware ADS-B
Fri 05:10:45 AM -1.7900 -61.0860 143° Southeast 464 534 37,000  Level FlightAware ADS-B
Fri 05:11:31 AM -1.8680 -61.0250 142° Southeast 464 534 37,000  Level FlightAware ADS-B
Fri 05:12:17 AM -1.9470 -60.9650 143° Southeast 465 535 37,000  Level FlightAware ADS-B
Fri 05:12:57 AM -2.0150 -60.9130 143° Southeast 465 535 37,000  Level FlightAware ADS-B
Fri 05:13:41 AM -2.0900 -60.8550 142° Southeast 464 534 37,000  Level FlightAware ADS-B
Fri 05:14:17 AM -2.1510 -60.8080 142° Southeast 464 534 37,000  Level FlightAware ADS-B
Fri 05:14:57 AM -2.2200 -60.7550 142° Southeast 465 535 37,000  Level FlightAware ADS-B
Fri 05:15:41 AM -2.2950 -60.6970 142° Southeast 465 535 37,000  Level FlightAware ADS-B
Fri 05:16:22 AM -2.3640 -60.6440 142° Southeast 465 535 37,000  Level FlightAware ADS-B
Fri 05:17:03 AM -2.4360 -60.5890 143° Southeast 465 535 37,000  Level FlightAware ADS-B
Fri 05:17:45 AM -2.5060 -60.5340 142° Southeast 464 534 37,000  Level FlightAware ADS-B
Fri 05:18:29 AM -2.5780 -60.4720 139° Southeast 463 533 37,000  Level FlightAware ADS-B
Fri 05:19:05 AM -2.6350 -60.4190 137° Southeast 462 532 37,000  Level FlightAware ADS-B
Fri 05:19:45 AM -2.6980 -60.3620 138° Southeast 462 532 37,000  Level FlightAware ADS-B
Fri 05:20:29 AM -2.7680 -60.3000 139° Southeast 461 531 37,000  Level FlightAware ADS-B
Fri 05:21:05 AM -2.8260 -60.2470 138° Southeast 462 532 37,000  Level FlightAware ADS-B
Fri 05:21:45 AM -2.8890 -60.1900 138° Southeast 462 532 37,000  Level FlightAware ADS-B
Fri 05:22:25 AM -2.9530 -60.1330 138° Southeast 462 532 37,000  Level FlightAware ADS-B
Fri 05:23:05 AM -3.0160 -60.0770 138° Southeast 461 531 37,000  Level FlightAware ADS-B
Fri 05:23:45 AM -3.0820 -60.0210 140° Southeast 461 531 37,000  Level FlightAware ADS-B
Fri 05:24:25 AM -3.1500 -59.9690 143° Southeast 461 531 37,000  Level FlightAware ADS-B
Fri 05:25:05 AM -3.2180 -59.9180 143° Southeast 461 531 37,000  Level FlightAware ADS-B
Fri 05:25:49 AM -3.2910 -59.8620 143° Southeast 461 531 37,000  Level FlightAware ADS-B
Fri 05:26:29 AM -3.3610 -59.8090 143° Southeast 461 531 37,000  Level FlightAware ADS-B
Fri 05:27:13 AM -3.4350 -59.7520 142° Southeast 461 531 37,000  Level FlightAware ADS-B
Fri 05:27:53 AM -3.5020 -59.6990 142° Southeast 461 531 37,000  Level FlightAware ADS-B
Fri 05:28:29 AM -3.5610 -59.6510 141° Southeast 461 531 37,000  Level FlightAware ADS-B
Fri 05:29:13 AM -3.6310 -59.5880 138° Southeast 462 532 37,000  Level FlightAware ADS-B
Fri 05:29:53 AM -3.6950 -59.5300 138° Southeast 461 531 37,000  Level FlightAware ADS-B
Fri 05:30:37 AM -3.7650 -59.4670 138° Southeast 460 529 37,000  Level FlightAware ADS-B
Fri 05:31:17 AM -3.8280 -59.4100 138° Southeast 460 529 37,000  Level FlightAware ADS-B
Fri 05:31:59 AM -3.8950 -59.3490 138° Southeast 460 529 37,000  Level FlightAware ADS-B
Fri 05:32:43 AM -3.9650 -59.2860 138° Southeast 460 529 37,000  Level FlightAware ADS-B
Fri 05:33:19 AM -4.0220 -59.2350 138° Southeast 460 529 37,000  Level FlightAware ADS-B
Fri 05:33:55 AM -4.0780 -59.1840 138° Southeast 458 527 37,000  Level FlightAware ADS-B
Fri 05:34:40 AM -4.1410 -59.1260 137° Southeast 458 527 37,000  Level FlightAware ADS-B
Fri 05:35:16 AM -4.1880 -59.0820 137° Southeast 458 527 37,000  Level FlightAware ADS-B
Fri 05:35:52 AM -4.2360 -59.0380 138° Southeast 458 527 37,000  Level FlightAware ADS-B
Fri 05:36:40 AM -4.2990 -58.9790 137° Southeast 458 527 37,000  Level FlightAware ADS-B
Fri 05:37:16 AM -4.3470 -58.9340 137° Southeast 458 527 37,000  Level FlightAware ADS-B
Fri 05:37:52 AM -4.3940 -58.8900 137° Southeast 458 527 37,000  Level FlightAware ADS-B
Fri 05:38:40 AM -4.4570 -58.8310 137° Southeast 458 527 37,000  Level FlightAware ADS-B
Fri 05:39:16 AM -4.5050 -58.7860 137° Southeast 458 527 37,000  Level FlightAware ADS-B
Fri 05:40:04 AM -4.5680 -58.7270 137° Southeast 458 527 37,000  Level FlightAware ADS-B
Fri 05:40:40 AM -4.6150 -58.6830 137° Southeast 458 527 37,000  Level FlightAware ADS-B
Fri 05:41:28 AM -4.6780 -58.6240 137° Southeast 458 527 37,000  Level FlightAware ADS-B
Fri 05:42:04 AM -4.7260 -58.5790 137° Southeast 458 527 37,000  Level FlightAware ADS-B
Fri 05:42:40 AM -4.7730 -58.5350 137° Southeast 458 527 37,000  Level FlightAware ADS-B
Fri 05:43:28 AM -4.8370 -58.4760 137° Southeast 458 527 37,000  Level FlightAware ADS-B
Fri 05:44:04 AM -4.8840 -58.4310 136° Southeast 458 527 37,000 -22 Level FlightAware ADS-B
Fri 05:46:00 AM -5.0650 -58.2646 138° Southeast  Level Estimated
Fri 05:47:00 AM -5.1586 -58.1786 138° Southeast  Level Estimated
Fri 05:48:00 AM -5.2522 -58.0925 138° Southeast  Level Estimated
Fri 05:49:00 AM -5.3458 -58.0063 137° Southeast  Level Estimated
Fri 05:50:00 AM -5.4393 -57.9202 137° Southeast  Level Estimated
Fri 05:51:00 AM -5.5329 -57.8340 137° Southeast  Level Estimated
Fri 05:52:00 AM -5.6264 -57.7478 137° Southeast  Level Estimated
Fri 05:53:00 AM -5.7199 -57.6615 137° Southeast  Level Estimated
Fri 05:54:00 AM -5.8134 -57.5753 137° Southeast  Level Estimated
Fri 05:55:00 AM -5.9069 -57.4890 137° Southeast  Level Estimated
Fri 05:56:00 AM -6.0004 -57.4026 137° Southeast  Level Estimated
Fri 05:57:00 AM -6.0939 -57.3163 137° Southeast  Level Estimated
Fri 05:58:00 AM -6.1874 -57.2299 137° Southeast  Level Estimated
Fri 05:59:00 AM -6.2808 -57.1435 137° Southeast  Level Estimated
Fri 06:00:00 AM -6.3742 -57.0570 137° Southeast  Level Estimated
Fri 06:01:00 AM -6.4677 -56.9705 137° Southeast  Level Estimated
Fri 06:02:00 AM -6.5611 -56.8840 137° Southeast  Level Estimated
Fri 06:03:00 AM -6.6545 -56.7975 137° Southeast  Level Estimated
Fri 06:04:00 AM -6.7478 -56.7109 137° Southeast  Level Estimated
Fri 06:05:00 AM -6.8412 -56.6243 137° Southeast  Level Estimated
Fri 06:06:00 AM -6.9345 -56.5377 137° Southeast  Level Estimated
Fri 06:07:00 AM -7.0279 -56.4510 137° Southeast  Level Estimated
Fri 06:08:00 AM -7.1212 -56.3643 137° Southeast  Level Estimated
Fri 06:09:00 AM -7.2145 -56.2775 137° Southeast  Level Estimated
Fri 06:10:00 AM -7.3077 -56.1907 137° Southeast  Level Estimated
Fri 06:11:00 AM -7.4010 -56.1039 137° Southeast  Level Estimated
Fri 06:12:00 AM -7.4942 -56.0171 137° Southeast  Level Estimated
Fri 06:13:00 AM -7.5875 -55.9302 137° Southeast  Level Estimated
Fri 06:14:00 AM -7.6807 -55.8432 137° Southeast  Level Estimated
Fri 06:15:00 AM -7.7739 -55.7563 137° Southeast  Level Estimated
Fri 06:16:00 AM -7.8670 -55.6693 137° Southeast  Level Estimated
Fri 06:17:00 AM -7.9602 -55.5822 137° Southeast  Level Estimated
Fri 06:18:00 AM -8.0533 -55.4951 137° Southeast  Level Estimated
Fri 06:19:00 AM -8.1465 -55.4080 137° Southeast  Level Estimated
Fri 06:20:00 AM -8.2396 -55.3208 137° Southeast  Level Estimated
Fri 06:21:00 AM -8.3326 -55.2336 137° Southeast  Level Estimated
Fri 06:22:00 AM -8.4257 -55.1464 137° Southeast  Level Estimated
Fri 06:23:00 AM -8.5187 -55.0591 137° Southeast  Level Estimated
Fri 06:24:00 AM -8.6118 -54.9717 137° Southeast  Level Estimated
Fri 06:25:00 AM -8.7048 -54.8843 137° Southeast  Level Estimated
Fri 06:26:00 AM -8.7978 -54.7969 137° Southeast  Level Estimated
Fri 06:27:00 AM -8.8907 -54.7094 137° Southeast  Level Estimated
Fri 06:28:00 AM -8.9837 -54.6219 137° Southeast  Level Estimated
Fri 06:29:00 AM -9.0766 -54.5344 137° Southeast  Level Estimated
Fri 06:30:00 AM -9.1695 -54.4468 137° Southeast  Level Estimated
Fri 06:31:00 AM -9.2624 -54.3591 137° Southeast  Level Estimated
Fri 06:32:00 AM -9.3552 -54.2714 137° Southeast  Level Estimated
Fri 06:33:00 AM -9.4481 -54.1837 137° Southeast  Level Estimated
Fri 06:34:00 AM -9.5409 -54.0959 137° Southeast  Level Estimated
Fri 06:35:00 AM -9.6337 -54.0081 137° Southeast  Level Estimated
Fri 06:36:00 AM -9.7265 -53.9202 137° Southeast  Level Estimated
Fri 06:37:00 AM -9.8192 -53.8323 137° Southeast  Level Estimated
Fri 06:38:00 AM -9.9120 -53.7443 137° Southeast  Level Estimated
Fri 06:39:00 AM -10.0047 -53.6563 137° Southeast  Level Estimated
Fri 06:40:00 AM -10.0973 -53.5682 137° Southeast  Level Estimated
Fri 06:41:00 AM -10.1900 -53.4800 137° Southeast  Level Estimated
Fri 06:42:00 AM -10.2826 -53.3919 137° Southeast  Level Estimated
Fri 06:43:00 AM -10.3752 -53.3036 137° Southeast  Level Estimated
Fri 06:44:00 AM -10.4678 -53.2154 137° Southeast  Level Estimated
Fri 06:45:00 AM -10.5604 -53.1270 137° Southeast  Level Estimated
Fri 06:46:00 AM -10.6529 -53.0386 137° Southeast  Level Estimated
Fri 06:47:00 AM -10.7455 -52.9502 137° Southeast  Level Estimated
Fri 06:48:00 AM -10.8379 -52.8617 137° Southeast  Level Estimated
Fri 06:49:00 AM -10.9304 -52.7731 137° Southeast  Level Estimated
Fri 06:50:00 AM -11.0228 -52.6845 137° Southeast  Level Estimated
Fri 06:51:00 AM -11.1152 -52.5958 137° Southeast  Level Estimated
Fri 06:52:00 AM -11.2076 -52.5071 137° Southeast  Level Estimated
Fri 06:53:00 AM -11.3000 -52.4183 137° Southeast  Level Estimated
Fri 06:54:00 AM -11.3923 -52.3295 137° Southeast  Level Estimated
Fri 06:55:00 AM -11.4846 -52.2406 137° Southeast  Level Estimated
Fri 06:56:00 AM -11.5769 -52.1516 137° Southeast  Level Estimated
Fri 06:57:00 AM -11.6692 -52.0626 137° Southeast  Level Estimated
Fri 06:58:00 AM -11.7614 -51.9736 137° Southeast  Level Estimated
Fri 06:59:00 AM -11.8536 -51.8844 137° Southeast  Level Estimated
Fri 07:00:00 AM -11.9458 -51.7952 137° Southeast  Level Estimated
Fri 07:01:00 AM -12.0379 -51.7060 137° Southeast  Level Estimated
Fri 07:02:00 AM -12.1300 -51.6167 137° Southeast  Level Estimated
Fri 07:03:00 AM -12.2221 -51.5273 137° Southeast  Level Estimated
Fri 07:04:00 AM -12.3142 -51.4379 136° Southeast  Level Estimated
Fri 07:05:00 AM -12.4062 -51.3484 136° Southeast  Level Estimated
Fri 07:06:00 AM -12.4982 -51.2588 136° Southeast  Level Estimated
Fri 07:07:00 AM -12.5902 -51.1692 136° Southeast  Level Estimated
Fri 07:08:00 AM -12.6821 -51.0795 136° Southeast  Level Estimated
Fri 07:09:00 AM -12.7740 -50.9897 136° Southeast  Level Estimated
Fri 07:10:00 AM -12.8659 -50.8999 136° Southeast  Level Estimated
Fri 07:11:00 AM -12.9577 -50.8100 136° Southeast  Level Estimated
Fri 07:12:00 AM -13.0496 -50.7201 136° Southeast  Level Estimated
Fri 07:13:00 AM -13.1413 -50.6301 136° Southeast  Level Estimated
Fri 07:14:00 AM -13.2331 -50.5400 136° Southeast  Level Estimated
Fri 07:15:00 AM -13.3248 -50.4498 136° Southeast  Level Estimated
Fri 07:16:00 AM -13.4165 -50.3596 136° Southeast  Level Estimated
Fri 07:17:00 AM -13.5082 -50.2693 136° Southeast  Level Estimated
Fri 07:18:00 AM -13.5998 -50.1789 136° Southeast  Level Estimated
Fri 07:19:00 AM -13.6914 -50.0885 136° Southeast  Level Estimated
Fri 07:20:00 AM -13.7829 -49.9980 136° Southeast  Level Estimated
Fri 07:21:00 AM -13.8745 -49.9074 136° Southeast  Level Estimated
Fri 07:22:00 AM -13.9660 -49.8168 136° Southeast  Level Estimated
Fri 07:23:00 AM -14.0574 -49.7261 136° Southeast  Level Estimated
Fri 07:24:00 AM -14.1489 -49.6353 136° Southeast  Level Estimated
Fri 07:25:00 AM -14.2402 -49.5444 136° Southeast  Level Estimated
Fri 07:26:00 AM -14.3316 -49.4535 136° Southeast  Level Estimated
Fri 07:27:00 AM -14.4229 -49.3625 136° Southeast  Level Estimated
Fri 07:28:00 AM -14.5142 -49.2714 136° Southeast  Level Estimated
Fri 07:29:00 AM -14.6055 -49.1802 136° Southeast  Level Estimated
Fri 07:30:00 AM -14.6967 -49.0890 136° Southeast  Level Estimated
Fri 07:31:00 AM -14.7879 -48.9977 136° Southeast  Level Estimated
Fri 07:31:17 AM -14.6760 -49.3580 136° Southeast 35,400  Level FlightAware ADS-B
Fri 07:31:57 AM -14.7430 -49.2990 140° Southeast 470 541 34,600 -1,829 Descending FlightAware ADS-B
Fri 07:32:00 AM -14.8790 -48.9063 136° Southeast  Level Estimated
Fri 07:33:02 AM -14.8480 -49.2060 139° Southeast 476 548 32,200  Level FlightAware ADS-B
Fri 07:33:37 AM -14.9110 -49.1510 140° Southeast 476 548 30,300 -2,850 Descending FlightAware ADS-B
Fri 07:34:22 AM -14.9830 -49.0810 137° Southeast 460 529 28,400 -2,600 Descending FlightAware ADS-B
Fri 07:35:07 AM -15.0450 -49.0100 132° Southeast 448 516 26,400 -2,612 Descending FlightAware ADS-B
Fri 07:35:47 AM -15.1030 -48.9460 133° Southeast 444 511 24,700 -2,325 Descending FlightAware ADS-B
Fri 07:36:27 AM -15.1560 -48.8880 133° Southeast 439 505 23,300 -2,329 Descending FlightAware ADS-B
Fri 07:37:12 AM -15.2210 -48.8190 134° Southeast 427 491 21,400 -2,333 Descending FlightAware ADS-B
Fri 07:37:57 AM -15.2810 -48.7530 133° Southeast 417 480 19,800 -2,188 Descending FlightAware ADS-B
Fri 07:38:37 AM -15.3340 -48.6950 133° Southeast 406 467 18,300 -2,188 Descending FlightAware ADS-B
Fri 07:39:22 AM -15.3910 -48.6330 134° Southeast 394 453 16,700 -2,023 Descending FlightAware ADS-B
Fri 07:40:03 AM -15.4410 -48.5790 134° Southeast 383 441 15,400 -1,500 Descending FlightAware ADS-B
Fri 07:40:42 AM -15.4880 -48.5270 133° Southeast 357 411 14,700 -786 Descending FlightAware ADS-B
Fri 07:41:27 AM -15.5360 -48.4740 133° Southeast 320 368 14,300 -494 Descending FlightAware ADS-B
Fri 07:42:07 AM -15.5740 -48.4320 133° Southeast 286 329 14,000 -750 Descending FlightAware ADS-B
Fri 07:42:47 AM -15.6060 -48.3920 130° Southeast 270 311 13,300 -1,341 Descending FlightAware ADS-B
Fri 07:43:32 AM -15.6390 -48.3450 126° Southeast 256 295 12,100 -1,482 Descending FlightAware ADS-B
Fri 07:44:12 AM -15.6660 -48.3070 126° Southeast 247 284 11,200 -1,412 Descending FlightAware ADS-B
Fri 07:44:57 AM -15.6970 -48.2640 127° Southeast 241 277 10,100 -1,360 Descending FlightAware ADS-B
Fri 07:45:27 AM -15.7160 -48.2370 126° Southeast 222 255 9,500 -1,200 Descending FlightAware ADS-B
Fri 07:45:52 AM -15.7300 -48.2160 125° Southeast 218 251 9,000 -1,294 Descending FlightAware ADS-B
Fri 07:46:18 AM -15.7460 -48.1940 127° Southeast 224 258 8,400 -1,179 Descending FlightAware ADS-B
Fri 07:46:48 AM -15.7640 -48.1680 126° Southeast 224 258 7,900 -778 Descending FlightAware ADS-B
Fri 07:47:12 AM -15.7800 -48.1470 128° Southeast 214 246 7,700 -682 Descending FlightAware ADS-B
Fri 07:47:32 AM -15.7980 -48.1380 154° Southeast 236 272 7,400 -1,067 Descending FlightAware ADS-B
Fri 07:47:57 AM -15.8240 -48.1300 164° South 226 260 6,900 -1,050 Descending FlightAware ADS-B
Fri 07:48:12 AM -15.8380 -48.1260 165° South 215 247 6,700 -450 Descending FlightAware ADS-B
Fri 07:48:37 AM -15.8610 -48.1200 166° South 201 231 6,600 -321 Descending FlightAware ADS-B
Fri 07:49:08 AM -15.8850 -48.1080 154° Southeast 185 213 6,400 -522 Descending FlightAware ADS-B
Fri 07:49:23 AM -15.8900 -48.0960 113° Southeast 174 200 6,200 -933 Descending FlightAware ADS-B
Fri 07:49:53 AM -15.8890 -48.0730 87° East 146 168 5,700 -828 Descending FlightAware ADS-B
Fri 07:50:21 AM -15.8880 -48.0550 87° East 123 142 5,400 -692 Descending FlightAware ADS-B
Fri 07:50:45 AM -15.8870 -48.0420 85° East 122 140 5,100 -692 Descending FlightAware ADS-B
Fri 07:51:13 AM -15.8860 -48.0250 87° East 118 136 4,800 -571 Descending FlightAware ADS-B
Fri 07:51:27 AM -15.8860 -48.0180 90° East 119 137 4,700 -632 Descending FlightAware ADS-B
Fri 07:51:51 AM -15.8850 -48.0030 86° East 133 153 4,400 -750 Descending FlightAware ADS-B
Fri 07:52:07 AM -15.8840 -47.9920 85° East 128 147 4,200 -667 Descending FlightAware ADS-B
Fri 07:52:27 AM -15.8830 -47.9800 85° East 130 150 4,000 -667 Descending FlightAware ADS-B
Fri 07:52:52 AM -15.8820 -47.9640 86° East 137 158 3,700 -764 Descending FlightAware ADS-B
Fri 07:53:22 AM -15.8810 -47.9440 87° East 130 150 3,300 -643 Descending FlightAware ADS-B
Fri 07:53:48 AM -15.8800 -47.9310 85° East 117 135 3,100 -462 Descending FlightAware ADS-B
Fri 07:54:19 AM -15.8790 -47.9210 84° East 42 48 -6,000 Descending FlightAware ADS-B
Fri 07:54:52 AM -15.8790 -47.9160 90° East 34 39  Level FlightAware ADS-B

Login

Don't have an account? Register now (free) for customized features, flight alerts, and more!